sensor_id;sensor_type;location;lat;lon;timestamp;temperature;humidity
16412;DHT22;8315;52.104;6.304;2022-08-03T00:01:31;20.20;98.40
16412;DHT22;8315;52.104;6.304;2022-08-03T00:03:58;20.20;98.40
16412;DHT22;8315;52.104;6.304;2022-08-03T00:06:25;20.10;98.40
16412;DHT22;8315;52.104;6.304;2022-08-03T00:08:52;20.00;98.40
16412;DHT22;8315;52.104;6.304;2022-08-03T00:11:19;20.00;98.40
16412;DHT22;8315;52.104;6.304;2022-08-03T00:13:45;20.00;98.40
16412;DHT22;8315;52.104;6.304;2022-08-03T00:16:14;20.00;98.40
16412;DHT22;8315;52.104;6.304;2022-08-03T00:18:41;20.00;98.40
16412;DHT22;8315;52.104;6.304;2022-08-03T00:21:08;20.00;98.40
16412;DHT22;8315;52.104;6.304;2022-08-03T00:23:35;20.00;98.40
16412;DHT22;8315;52.104;6.304;2022-08-03T00:26:02;19.90;98.40
16412;DHT22;8315;52.104;6.304;2022-08-03T00:28:29;19.90;98.40
16412;DHT22;8315;52.104;6.304;2022-08-03T00:30:56;19.80;98.40
16412;DHT22;8315;52.104;6.304;2022-08-03T00:33:24;19.80;98.40
16412;DHT22;8315;52.104;6.304;2022-08-03T00:35:51;19.70;98.40
16412;DHT22;8315;52.104;6.304;2022-08-03T00:38:18;19.70;98.40
16412;DHT22;8315;52.104;6.304;2022-08-03T00:40:45;19.70;98.40
16412;DHT22;8315;52.104;6.304;2022-08-03T00:43:12;19.70;98.40
16412;DHT22;8315;52.104;6.304;2022-08-03T00:45:39;19.60;98.40
16412;DHT22;8315;52.104;6.304;2022-08-03T00:48:07;19.50;98.40
16412;DHT22;8315;52.104;6.304;2022-08-03T00:50:38;19.40;98.40
16412;DHT22;8315;52.104;6.304;2022-08-03T00:53:05;19.50;98.40
16412;DHT22;8315;52.104;6.304;2022-08-03T00:55:34;19.50;98.40
16412;DHT22;8315;52.104;6.304;2022-08-03T00:58:02;19.50;98.40
16412;DHT22;8315;52.104;6.304;2022-08-03T01:00:32;19.50;98.40
16412;DHT22;8315;52.104;6.304;2022-08-03T01:03:00;19.40;98.40
16412;DHT22;8315;52.104;6.304;2022-08-03T01:05:27;19.30;98.40
16412;DHT22;8315;52.104;6.304;2022-08-03T01:07:59;19.30;98.40
16412;DHT22;8315;52.104;6.304;2022-08-03T01:10:31;19.30;98.40
16412;DHT22;8315;52.104;6.304;2022-08-03T01:13:04;19.30;98.40
16412;DHT22;8315;52.104;6.304;2022-08-03T01:15:41;19.30;98.40
16412;DHT22;8315;52.104;6.304;2022-08-03T01:18:13;19.30;98.40
16412;DHT22;8315;52.104;6.304;2022-08-03T01:20:44;19.20;98.40
16412;DHT22;8315;52.104;6.304;2022-08-03T01:23:21;19.20;98.40
16412;DHT22;8315;52.104;6.304;2022-08-03T01:25:59;19.10;98.40
16412;DHT22;8315;52.104;6.304;2022-08-03T01:31:38;19.20;98.40
16412;DHT22;8315;52.104;6.304;2022-08-03T01:34:07;19.10;98.40
16412;DHT22;8315;52.104;6.304;2022-08-03T01:36:37;19.10;98.40
16412;DHT22;8315;52.104;6.304;2022-08-03T01:39:05;19.00;98.40
16412;DHT22;8315;52.104;6.304;2022-08-03T01:41:34;19.00;98.40
16412;DHT22;8315;52.104;6.304;2022-08-03T01:44:05;19.00;98.40
16412;DHT22;8315;52.104;6.304;2022-08-03T01:46:35;18.90;98.40
16412;DHT22;8315;52.104;6.304;2022-08-03T01:49:02;18.80;98.40
16412;DHT22;8315;52.104;6.304;2022-08-03T01:51:29;18.80;98.40
16412;DHT22;8315;52.104;6.304;2022-08-03T01:53:57;18.90;98.40
16412;DHT22;8315;52.104;6.304;2022-08-03T01:56:24;18.80;98.40
16412;DHT22;8315;52.104;6.304;2022-08-03T01:58:51;18.80;98.40
16412;DHT22;8315;52.104;6.304;2022-08-03T02:01:19;18.80;98.40
16412;DHT22;8315;52.104;6.304;2022-08-03T02:03:48;18.90;98.40
16412;DHT22;8315;52.104;6.304;2022-08-03T02:06:15;18.80;98.40
16412;DHT22;8315;52.104;6.304;2022-08-03T02:08:43;18.70;98.40
16412;DHT22;8315;52.104;6.304;2022-08-03T02:11:10;18.80;98.40
16412;DHT22;8315;52.104;6.304;2022-08-03T02:13:38;18.70;98.40
16412;DHT22;8315;52.104;6.304;2022-08-03T02:16:05;18.70;98.40
16412;DHT22;8315;52.104;6.304;2022-08-03T02:18:32;18.70;98.40
16412;DHT22;8315;52.104;6.304;2022-08-03T02:21:01;18.70;98.40
16412;DHT22;8315;52.104;6.304;2022-08-03T02:23:29;18.70;98.40
16412;DHT22;8315;52.104;6.304;2022-08-03T02:25:56;18.70;98.40
16412;DHT22;8315;52.104;6.304;2022-08-03T02:28:25;18.60;98.40
16412;DHT22;8315;52.104;6.304;2022-08-03T02:30:55;18.60;98.40
16412;DHT22;8315;52.104;6.304;2022-08-03T02:33:25;18.70;98.40
16412;DHT22;8315;52.104;6.304;2022-08-03T02:35:54;18.70;98.40
16412;DHT22;8315;52.104;6.304;2022-08-03T02:38:25;18.70;98.40
16412;DHT22;8315;52.104;6.304;2022-08-03T02:40:54;18.70;98.40
16412;DHT22;8315;52.104;6.304;2022-08-03T02:43:21;18.60;98.40
16412;DHT22;8315;52.104;6.304;2022-08-03T02:45:50;18.60;98.40
16412;DHT22;8315;52.104;6.304;2022-08-03T02:48:19;18.60;98.40
16412;DHT22;8315;52.104;6.304;2022-08-03T02:50:48;18.60;98.40
16412;DHT22;8315;52.104;6.304;2022-08-03T02:53:15;18.70;98.40
16412;DHT22;8315;52.104;6.304;2022-08-03T02:55:44;18.70;98.40
16412;DHT22;8315;52.104;6.304;2022-08-03T02:58:12;18.70;98.40
16412;DHT22;8315;52.104;6.304;2022-08-03T03:00:39;18.70;98.40
16412;DHT22;8315;52.104;6.304;2022-08-03T03:03:06;18.70;98.40
16412;DHT22;8315;52.104;6.304;2022-08-03T03:05:34;18.70;98.40
16412;DHT22;8315;52.104;6.304;2022-08-03T03:08:00;18.70;98.40
16412;DHT22;8315;52.104;6.304;2022-08-03T03:10:27;18.60;98.40
16412;DHT22;8315;52.104;6.304;2022-08-03T03:12:56;18.60;98.40
16412;DHT22;8315;52.104;6.304;2022-08-03T03:15:24;18.50;98.40
16412;DHT22;8315;52.104;6.304;2022-08-03T03:17:52;18.50;98.40
16412;DHT22;8315;52.104;6.304;2022-08-03T03:20:20;18.50;98.40
16412;DHT22;8315;52.104;6.304;2022-08-03T03:22:47;18.40;98.40
16412;DHT22;8315;52.104;6.304;2022-08-03T03:25:14;18.50;98.40
16412;DHT22;8315;52.104;6.304;2022-08-03T03:27:41;18.50;98.40
16412;DHT22;8315;52.104;6.304;2022-08-03T03:30:10;18.50;98.40
16412;DHT22;8315;52.104;6.304;2022-08-03T03:32:38;18.50;98.40
16412;DHT22;8315;52.104;6.304;2022-08-03T03:35:05;18.50;98.40
16412;DHT22;8315;52.104;6.304;2022-08-03T03:37:33;18.40;98.40
16412;DHT22;8315;52.104;6.304;2022-08-03T03:40:00;18.40;98.40
16412;DHT22;8315;52.104;6.304;2022-08-03T03:42:28;18.40;98.40
16412;DHT22;8315;52.104;6.304;2022-08-03T03:44:55;18.40;98.40
16412;DHT22;8315;52.104;6.304;2022-08-03T03:47:23;18.40;98.40
16412;DHT22;8315;52.104;6.304;2022-08-03T03:49:50;18.40;98.40
16412;DHT22;8315;52.104;6.304;2022-08-03T03:52:17;18.40;98.40
16412;DHT22;8315;52.104;6.304;2022-08-03T03:54:44;18.30;98.40
16412;DHT22;8315;52.104;6.304;2022-08-03T03:57:11;18.40;98.40
16412;DHT22;8315;52.104;6.304;2022-08-03T03:59:37;18.30;98.40
16412;DHT22;8315;52.104;6.304;2022-08-03T04:02:05;18.30;98.40
16412;DHT22;8315;52.104;6.304;2022-08-03T04:04:34;18.20;98.40
16412;DHT22;8315;52.104;6.304;2022-08-03T04:07:19;18.20;98.40
16412;DHT22;8315;52.104;6.304;2022-08-03T04:10:04;18.20;98.40
16412;DHT22;8315;52.104;6.304;2022-08-03T04:12:54;18.20;98.40
16412;DHT22;8315;52.104;6.304;2022-08-03T04:15:23;18.20;98.40
16412;DHT22;8315;52.104;6.304;2022-08-03T04:17:51;18.20;98.40
16412;DHT22;8315;52.104;6.304;2022-08-03T04:20:20;18.10;98.40
16412;DHT22;8315;52.104;6.304;2022-08-03T04:22:48;18.10;98.40
16412;DHT22;8315;52.104;6.304;2022-08-03T04:25:16;18.20;98.40
16412;DHT22;8315;52.104;6.304;2022-08-03T04:27:43;18.20;98.40
16412;DHT22;8315;52.104;6.304;2022-08-03T04:30:12;18.30;98.40
16412;DHT22;8315;52.104;6.304;2022-08-03T04:32:39;18.30;98.40
16412;DHT22;8315;52.104;6.304;2022-08-03T04:35:09;18.40;98.40
16412;DHT22;8315;52.104;6.304;2022-08-03T04:37:38;18.50;98.40
16412;DHT22;8315;52.104;6.304;2022-08-03T04:40:08;18.60;98.40
16412;DHT22;8315;52.104;6.304;2022-08-03T04:42:36;18.60;98.40
16412;DHT22;8315;52.104;6.304;2022-08-03T04:45:03;18.70;98.40
16412;DHT22;8315;52.104;6.304;2022-08-03T04:47:32;18.80;98.40
16412;DHT22;8315;52.104;6.304;2022-08-03T04:49:59;18.90;98.40
16412;DHT22;8315;52.104;6.304;2022-08-03T04:52:26;18.90;98.40
16412;DHT22;8315;52.104;6.304;2022-08-03T04:54:54;18.90;98.40
16412;DHT22;8315;52.104;6.304;2022-08-03T04:57:22;19.00;98.40
16412;DHT22;8315;52.104;6.304;2022-08-03T04:59:49;19.10;98.40
16412;DHT22;8315;52.104;6.304;2022-08-03T05:02:18;19.10;98.40
16412;DHT22;8315;52.104;6.304;2022-08-03T05:04:46;19.20;98.40
16412;DHT22;8315;52.104;6.304;2022-08-03T05:07:13;19.10;98.40
16412;DHT22;8315;52.104;6.304;2022-08-03T05:09:40;19.10;98.40
16412;DHT22;8315;52.104;6.304;2022-08-03T05:12:08;19.10;98.40
16412;DHT22;8315;52.104;6.304;2022-08-03T05:14:36;19.10;98.40
16412;DHT22;8315;52.104;6.304;2022-08-03T05:17:03;19.20;98.40
16412;DHT22;8315;52.104;6.304;2022-08-03T05:19:30;19.20;98.40
16412;DHT22;8315;52.104;6.304;2022-08-03T05:21:57;19.30;98.40
16412;DHT22;8315;52.104;6.304;2022-08-03T05:24:24;19.40;98.40
16412;DHT22;8315;52.104;6.304;2022-08-03T05:26:51;19.50;98.40
16412;DHT22;8315;52.104;6.304;2022-08-03T05:29:19;19.60;98.40
16412;DHT22;8315;52.104;6.304;2022-08-03T05:31:46;19.50;98.40
16412;DHT22;8315;52.104;6.304;2022-08-03T05:34:13;19.60;98.40
16412;DHT22;8315;52.104;6.304;2022-08-03T05:36:40;19.70;98.40
16412;DHT22;8315;52.104;6.304;2022-08-03T05:39:06;19.80;98.40
16412;DHT22;8315;52.104;6.304;2022-08-03T05:41:33;19.80;98.40
16412;DHT22;8315;52.104;6.304;2022-08-03T05:44:00;19.90;98.40
16412;DHT22;8315;52.104;6.304;2022-08-03T05:46:28;20.00;98.40
16412;DHT22;8315;52.104;6.304;2022-08-03T05:48:55;20.00;98.40
16412;DHT22;8315;52.104;6.304;2022-08-03T05:51:22;20.10;98.40
16412;DHT22;8315;52.104;6.304;2022-08-03T05:53:49;20.20;98.40
16412;DHT22;8315;52.104;6.304;2022-08-03T05:56:15;20.20;98.40
16412;DHT22;8315;52.104;6.304;2022-08-03T05:58:43;20.30;98.40
16412;DHT22;8315;52.104;6.304;2022-08-03T06:01:10;20.30;98.40
16412;DHT22;8315;52.104;6.304;2022-08-03T06:03:38;20.40;98.40
16412;DHT22;8315;52.104;6.304;2022-08-03T06:06:05;20.40;98.40
16412;DHT22;8315;52.104;6.304;2022-08-03T06:08:32;20.60;98.40
16412;DHT22;8315;52.104;6.304;2022-08-03T06:10:59;20.70;98.40
16412;DHT22;8315;52.104;6.304;2022-08-03T06:13:26;20.80;98.40
16412;DHT22;8315;52.104;6.304;2022-08-03T06:15:53;20.80;98.40
16412;DHT22;8315;52.104;6.304;2022-08-03T06:18:20;20.90;98.40
16412;DHT22;8315;52.104;6.304;2022-08-03T06:20:49;21.00;98.40
16412;DHT22;8315;52.104;6.304;2022-08-03T06:23:16;21.10;98.40
16412;DHT22;8315;52.104;6.304;2022-08-03T06:25:43;21.20;98.40
16412;DHT22;8315;52.104;6.304;2022-08-03T06:28:10;21.20;98.40
16412;DHT22;8315;52.104;6.304;2022-08-03T06:30:38;21.30;98.40
16412;DHT22;8315;52.104;6.304;2022-08-03T06:33:05;21.40;98.40
16412;DHT22;8315;52.104;6.304;2022-08-03T06:35:32;21.40;98.40
16412;DHT22;8315;52.104;6.304;2022-08-03T06:38:00;21.50;98.40
16412;DHT22;8315;52.104;6.304;2022-08-03T06:40:27;21.50;98.40
16412;DHT22;8315;52.104;6.304;2022-08-03T06:42:55;21.50;98.40
16412;DHT22;8315;52.104;6.304;2022-08-03T06:45:22;21.60;98.40
16412;DHT22;8315;52.104;6.304;2022-08-03T06:47:58;21.70;98.40
16412;DHT22;8315;52.104;6.304;2022-08-03T06:50:26;21.70;98.40
16412;DHT22;8315;52.104;6.304;2022-08-03T06:52:53;21.70;98.40
16412;DHT22;8315;52.104;6.304;2022-08-03T06:55:21;21.80;98.40
16412;DHT22;8315;52.104;6.304;2022-08-03T06:57:48;21.80;98.40
16412;DHT22;8315;52.104;6.304;2022-08-03T07:00:15;21.90;98.40
16412;DHT22;8315;52.104;6.304;2022-08-03T07:02:42;22.00;98.40
16412;DHT22;8315;52.104;6.304;2022-08-03T07:05:09;22.00;98.40
16412;DHT22;8315;52.104;6.304;2022-08-03T07:07:37;22.00;98.40
16412;DHT22;8315;52.104;6.304;2022-08-03T07:10:06;22.00;98.40
16412;DHT22;8315;52.104;6.304;2022-08-03T07:12:35;22.00;98.40
16412;DHT22;8315;52.104;6.304;2022-08-03T07:15:03;22.10;98.40
16412;DHT22;8315;52.104;6.304;2022-08-03T07:17:31;22.30;98.40
16412;DHT22;8315;52.104;6.304;2022-08-03T07:19:59;22.50;98.40
16412;DHT22;8315;52.104;6.304;2022-08-03T07:22:27;22.50;98.40
16412;DHT22;8315;52.104;6.304;2022-08-03T07:24:54;22.60;98.40
16412;DHT22;8315;52.104;6.304;2022-08-03T07:27:21;22.60;98.40
16412;DHT22;8315;52.104;6.304;2022-08-03T07:29:50;22.60;98.40
16412;DHT22;8315;52.104;6.304;2022-08-03T07:32:17;22.70;98.40
16412;DHT22;8315;52.104;6.304;2022-08-03T07:34:44;22.70;98.40
16412;DHT22;8315;52.104;6.304;2022-08-03T07:37:11;22.80;98.40
16412;DHT22;8315;52.104;6.304;2022-08-03T07:39:38;22.90;98.40
16412;DHT22;8315;52.104;6.304;2022-08-03T07:42:06;22.90;98.40
16412;DHT22;8315;52.104;6.304;2022-08-03T07:44:33;22.90;98.40
16412;DHT22;8315;52.104;6.304;2022-08-03T07:47:01;23.10;98.40
16412;DHT22;8315;52.104;6.304;2022-08-03T07:49:28;23.20;98.40
16412;DHT22;8315;52.104;6.304;2022-08-03T07:51:55;23.20;98.40
16412;DHT22;8315;52.104;6.304;2022-08-03T07:54:40;23.40;98.40
16412;DHT22;8315;52.104;6.304;2022-08-03T07:57:07;23.30;98.40
16412;DHT22;8315;52.104;6.304;2022-08-03T07:59:34;23.40;98.40
16412;DHT22;8315;52.104;6.304;2022-08-03T08:02:06;23.50;98.40
16412;DHT22;8315;52.104;6.304;2022-08-03T08:04:32;23.60;98.40
16412;DHT22;8315;52.104;6.304;2022-08-03T08:06:59;23.60;98.40
16412;DHT22;8315;52.104;6.304;2022-08-03T08:09:26;23.70;98.40
16412;DHT22;8315;52.104;6.304;2022-08-03T08:11:53;23.80;98.40
16412;DHT22;8315;52.104;6.304;2022-08-03T08:14:20;23.90;98.40
16412;DHT22;8315;52.104;6.304;2022-08-03T08:16:47;23.90;98.40
16412;DHT22;8315;52.104;6.304;2022-08-03T08:19:15;24.00;98.40
16412;DHT22;8315;52.104;6.304;2022-08-03T08:21:42;24.10;98.40
16412;DHT22;8315;52.104;6.304;2022-08-03T08:24:09;24.20;98.40
16412;DHT22;8315;52.104;6.304;2022-08-03T08:26:36;24.30;98.40
16412;DHT22;8315;52.104;6.304;2022-08-03T08:29:03;24.30;98.40
16412;DHT22;8315;52.104;6.304;2022-08-03T08:31:31;24.30;98.40
16412;DHT22;8315;52.104;6.304;2022-08-03T08:33:57;24.40;98.40
16412;DHT22;8315;52.104;6.304;2022-08-03T08:36:28;24.50;98.40
16412;DHT22;8315;52.104;6.304;2022-08-03T08:38:54;24.60;98.40
16412;DHT22;8315;52.104;6.304;2022-08-03T08:41:21;24.90;98.40
16412;DHT22;8315;52.104;6.304;2022-08-03T08:43:48;24.80;97.50
16412;DHT22;8315;52.104;6.304;2022-08-03T08:46:15;24.80;96.90
16412;DHT22;8315;52.104;6.304;2022-08-03T08:48:43;24.80;96.80
16412;DHT22;8315;52.104;6.304;2022-08-03T08:51:11;24.90;97.40
16412;DHT22;8315;52.104;6.304;2022-08-03T08:53:40;24.90;96.90
16412;DHT22;8315;52.104;6.304;2022-08-03T08:56:10;24.90;97.40
16412;DHT22;8315;52.104;6.304;2022-08-03T08:58:41;25.00;97.00
16412;DHT22;8315;52.104;6.304;2022-08-03T09:01:10;25.00;96.30
16412;DHT22;8315;52.104;6.304;2022-08-03T09:03:37;24.90;96.50
16412;DHT22;8315;52.104;6.304;2022-08-03T09:06:04;25.10;97.10
16412;DHT22;8315;52.104;6.304;2022-08-03T09:08:31;25.20;96.50
16412;DHT22;8315;52.104;6.304;2022-08-03T09:10:59;25.30;95.80
16412;DHT22;8315;52.104;6.304;2022-08-03T09:13:26;25.30;95.10
16412;DHT22;8315;52.104;6.304;2022-08-03T09:16:07;25.40;94.30
16412;DHT22;8315;52.104;6.304;2022-08-03T09:18:36;25.50;93.90
16412;DHT22;8315;52.104;6.304;2022-08-03T09:21:20;25.50;94.60
16412;DHT22;8315;52.104;6.304;2022-08-03T09:23:48;25.50;94.10
16412;DHT22;8315;52.104;6.304;2022-08-03T09:26:20;25.50;94.10
16412;DHT22;8315;52.104;6.304;2022-08-03T09:28:55;25.60;93.30
16412;DHT22;8315;52.104;6.304;2022-08-03T09:31:33;25.70;92.30
16412;DHT22;8315;52.104;6.304;2022-08-03T09:34:01;25.90;93.70
16412;DHT22;8315;52.104;6.304;2022-08-03T09:36:36;26.00;93.00
16412;DHT22;8315;52.104;6.304;2022-08-03T09:39:04;26.10;92.50
16412;DHT22;8315;52.104;6.304;2022-08-03T09:41:37;26.10;92.80
16412;DHT22;8315;52.104;6.304;2022-08-03T09:44:04;26.00;93.40
16412;DHT22;8315;52.104;6.304;2022-08-03T09:46:31;26.20;92.90
16412;DHT22;8315;52.104;6.304;2022-08-03T09:49:13;26.40;92.70
16412;DHT22;8315;52.104;6.304;2022-08-03T09:51:40;26.60;92.00
16412;DHT22;8315;52.104;6.304;2022-08-03T09:54:07;26.60;91.20
16412;DHT22;8315;52.104;6.304;2022-08-03T09:56:39;26.70;90.90
16412;DHT22;8315;52.104;6.304;2022-08-03T09:59:06;26.70;91.20
16412;DHT22;8315;52.104;6.304;2022-08-03T10:01:34;26.70;90.80
16412;DHT22;8315;52.104;6.304;2022-08-03T10:04:01;26.80;90.50
16412;DHT22;8315;52.104;6.304;2022-08-03T10:06:28;26.80;90.10
16412;DHT22;8315;52.104;6.304;2022-08-03T10:09:03;26.80;90.10
16412;DHT22;8315;52.104;6.304;2022-08-03T10:11:32;26.90;89.30
16412;DHT22;8315;52.104;6.304;2022-08-03T10:14:01;26.80;89.00
16412;DHT22;8315;52.104;6.304;2022-08-03T10:16:30;26.80;89.20
16412;DHT22;8315;52.104;6.304;2022-08-03T10:18:59;26.90;89.40
16412;DHT22;8315;52.104;6.304;2022-08-03T10:21:26;27.10;88.40
16412;DHT22;8315;52.104;6.304;2022-08-03T10:23:56;27.30;89.30
16412;DHT22;8315;52.104;6.304;2022-08-03T10:26:23;27.30;87.50
16412;DHT22;8315;52.104;6.304;2022-08-03T10:28:52;27.30;88.00
16412;DHT22;8315;52.104;6.304;2022-08-03T10:31:20;27.40;88.90
16412;DHT22;8315;52.104;6.304;2022-08-03T10:33:48;27.50;86.80
16412;DHT22;8315;52.104;6.304;2022-08-03T10:36:16;27.60;87.90
16412;DHT22;8315;52.104;6.304;2022-08-03T10:38:44;27.70;87.90
16412;DHT22;8315;52.104;6.304;2022-08-03T10:41:17;27.70;87.70
16412;DHT22;8315;52.104;6.304;2022-08-03T10:43:46;27.70;86.90
16412;DHT22;8315;52.104;6.304;2022-08-03T10:46:16;27.90;87.20
16412;DHT22;8315;52.104;6.304;2022-08-03T10:48:46;27.90;86.40
16412;DHT22;8315;52.104;6.304;2022-08-03T10:51:14;27.80;85.20
16412;DHT22;8315;52.104;6.304;2022-08-03T10:53:42;27.80;85.70
16412;DHT22;8315;52.104;6.304;2022-08-03T11:02:24;28.10;86.50
16412;DHT22;8315;52.104;6.304;2022-08-03T11:05:33;28.20;84.90
16412;DHT22;8315;52.104;6.304;2022-08-03T11:08:16;28.20;84.90
16412;DHT22;8315;52.104;6.304;2022-08-03T11:10:51;28.30;84.90
16412;DHT22;8315;52.104;6.304;2022-08-03T11:13:19;28.50;85.30
16412;DHT22;8315;52.104;6.304;2022-08-03T11:15:48;28.40;84.20
16412;DHT22;8315;52.104;6.304;2022-08-03T11:18:16;28.50;83.70
16412;DHT22;8315;52.104;6.304;2022-08-03T11:20:48;28.50;82.80
16412;DHT22;8315;52.104;6.304;2022-08-03T11:23:18;28.50;82.40
16412;DHT22;8315;52.104;6.304;2022-08-03T11:28:39;28.70;81.70
16412;DHT22;8315;52.104;6.304;2022-08-03T11:34:22;28.80;82.40
16412;DHT22;8315;52.104;6.304;2022-08-03T11:39:46;28.90;81.30
16412;DHT22;8315;52.104;6.304;2022-08-03T11:45:05;29.10;78.70
16412;DHT22;8315;52.104;6.304;2022-08-03T11:47:35;29.10;80.00
16412;DHT22;8315;52.104;6.304;2022-08-03T11:50:03;29.00;79.90
16412;DHT22;8315;52.104;6.304;2022-08-03T11:52:34;29.10;79.90
16412;DHT22;8315;52.104;6.304;2022-08-03T11:55:12;29.20;78.40
16412;DHT22;8315;52.104;6.304;2022-08-03T11:57:40;29.30;79.50
16412;DHT22;8315;52.104;6.304;2022-08-03T12:00:20;29.40;79.80
16412;DHT22;8315;52.104;6.304;2022-08-03T12:02:54;29.40;79.40
16412;DHT22;8315;52.104;6.304;2022-08-03T12:05:31;29.50;79.40
16412;DHT22;8315;52.104;6.304;2022-08-03T12:08:03;29.50;77.60
16412;DHT22;8315;52.104;6.304;2022-08-03T12:10:30;29.50;77.70
16412;DHT22;8315;52.104;6.304;2022-08-03T12:12:58;29.60;76.50
16412;DHT22;8315;52.104;6.304;2022-08-03T12:15:26;29.70;77.70
16412;DHT22;8315;52.104;6.304;2022-08-03T12:17:54;29.70;76.50
16412;DHT22;8315;52.104;6.304;2022-08-03T12:20:21;29.80;77.10
16412;DHT22;8315;52.104;6.304;2022-08-03T12:22:51;29.70;75.60
16412;DHT22;8315;52.104;6.304;2022-08-03T12:25:23;29.70;75.70
16412;DHT22;8315;52.104;6.304;2022-08-03T12:27:51;29.90;75.40
16412;DHT22;8315;52.104;6.304;2022-08-03T12:30:19;29.90;75.70
16412;DHT22;8315;52.104;6.304;2022-08-03T12:32:46;29.90;74.20
16412;DHT22;8315;52.104;6.304;2022-08-03T12:35:20;30.00;76.10
16412;DHT22;8315;52.104;6.304;2022-08-03T12:37:49;30.00;74.30
16412;DHT22;8315;52.104;6.304;2022-08-03T12:40:24;29.90;74.80
16412;DHT22;8315;52.104;6.304;2022-08-03T12:42:52;30.00;74.90
16412;DHT22;8315;52.104;6.304;2022-08-03T12:45:22;30.00;76.30
16412;DHT22;8315;52.104;6.304;2022-08-03T12:47:51;30.00;74.70
16412;DHT22;8315;52.104;6.304;2022-08-03T12:50:22;30.10;75.20
16412;DHT22;8315;52.104;6.304;2022-08-03T12:52:50;30.00;75.50
16412;DHT22;8315;52.104;6.304;2022-08-03T12:55:18;30.10;74.70
16412;DHT22;8315;52.104;6.304;2022-08-03T12:57:46;30.10;74.00
16412;DHT22;8315;52.104;6.304;2022-08-03T13:00:14;30.00;74.10
16412;DHT22;8315;52.104;6.304;2022-08-03T13:02:42;30.10;74.70
16412;DHT22;8315;52.104;6.304;2022-08-03T13:05:10;30.00;73.50
16412;DHT22;8315;52.104;6.304;2022-08-03T13:07:39;30.10;73.60
16412;DHT22;8315;52.104;6.304;2022-08-03T13:10:06;30.10;73.80
16412;DHT22;8315;52.104;6.304;2022-08-03T13:12:44;30.10;73.90
16412;DHT22;8315;52.104;6.304;2022-08-03T13:15:13;30.10;75.00
16412;DHT22;8315;52.104;6.304;2022-08-03T13:17:40;30.40;75.70
16412;DHT22;8315;52.104;6.304;2022-08-03T13:20:07;30.50;74.20
16412;DHT22;8315;52.104;6.304;2022-08-03T13:22:34;30.50;73.10
16412;DHT22;8315;52.104;6.304;2022-08-03T13:25:02;30.60;71.80
16412;DHT22;8315;52.104;6.304;2022-08-03T13:27:29;30.60;73.00
16412;DHT22;8315;52.104;6.304;2022-08-03T13:29:56;30.60;72.20
16412;DHT22;8315;52.104;6.304;2022-08-03T13:32:25;30.50;72.80
16412;DHT22;8315;52.104;6.304;2022-08-03T13:34:51;30.40;71.50
16412;DHT22;8315;52.104;6.304;2022-08-03T13:37:19;30.40;72.00
16412;DHT22;8315;52.104;6.304;2022-08-03T13:39:46;30.30;72.30
16412;DHT22;8315;52.104;6.304;2022-08-03T13:42:13;30.30;71.70
16412;DHT22;8315;52.104;6.304;2022-08-03T13:44:40;30.50;72.30
16412;DHT22;8315;52.104;6.304;2022-08-03T13:47:07;30.40;71.70
16412;DHT22;8315;52.104;6.304;2022-08-03T13:49:35;30.60;72.70
16412;DHT22;8315;52.104;6.304;2022-08-03T13:52:02;30.80;71.00
16412;DHT22;8315;52.104;6.304;2022-08-03T13:54:29;30.70;71.80
16412;DHT22;8315;52.104;6.304;2022-08-03T13:56:57;30.90;72.30
16412;DHT22;8315;52.104;6.304;2022-08-03T13:59:24;31.20;71.60
16412;DHT22;8315;52.104;6.304;2022-08-03T14:01:51;31.00;70.90
16412;DHT22;8315;52.104;6.304;2022-08-03T14:04:19;31.00;71.10
16412;DHT22;8315;52.104;6.304;2022-08-03T14:06:48;30.90;70.10
16412;DHT22;8315;52.104;6.304;2022-08-03T14:09:15;31.00;70.10
16412;DHT22;8315;52.104;6.304;2022-08-03T14:11:42;31.10;71.00
16412;DHT22;8315;52.104;6.304;2022-08-03T14:14:09;31.20;71.20
16412;DHT22;8315;52.104;6.304;2022-08-03T14:16:36;31.30;70.10
16412;DHT22;8315;52.104;6.304;2022-08-03T14:19:03;31.20;68.70
16412;DHT22;8315;52.104;6.304;2022-08-03T14:21:31;31.20;69.50
16412;DHT22;8315;52.104;6.304;2022-08-03T14:24:00;31.40;70.70
16412;DHT22;8315;52.104;6.304;2022-08-03T14:26:27;31.40;70.00
16412;DHT22;8315;52.104;6.304;2022-08-03T14:28:54;31.60;69.50
16412;DHT22;8315;52.104;6.304;2022-08-03T14:31:21;31.70;68.90
16412;DHT22;8315;52.104;6.304;2022-08-03T14:33:49;31.50;69.30
16412;DHT22;8315;52.104;6.304;2022-08-03T14:36:16;31.60;69.70
16412;DHT22;8315;52.104;6.304;2022-08-03T14:38:42;32.10;68.80
16412;DHT22;8315;52.104;6.304;2022-08-03T14:41:12;32.40;67.60
16412;DHT22;8315;52.104;6.304;2022-08-03T14:43:38;32.30;68.90
16412;DHT22;8315;52.104;6.304;2022-08-03T14:46:05;32.50;67.40
16412;DHT22;8315;52.104;6.304;2022-08-03T14:48:32;32.40;68.20
16412;DHT22;8315;52.104;6.304;2022-08-03T14:50:59;32.70;67.50
16412;DHT22;8315;52.104;6.304;2022-08-03T14:53:26;32.60;68.00
16412;DHT22;8315;52.104;6.304;2022-08-03T14:55:54;32.60;68.20
16412;DHT22;8315;52.104;6.304;2022-08-03T14:58:23;32.80;69.40
16412;DHT22;8315;52.104;6.304;2022-08-03T15:00:51;33.00;67.70
16412;DHT22;8315;52.104;6.304;2022-08-03T15:03:19;33.00;68.30
16412;DHT22;8315;52.104;6.304;2022-08-03T15:05:47;32.70;68.50
16412;DHT22;8315;52.104;6.304;2022-08-03T15:08:14;32.70;69.20
16412;DHT22;8315;52.104;6.304;2022-08-03T15:10:41;32.90;70.60
16412;DHT22;8315;52.104;6.304;2022-08-03T15:13:08;33.00;69.40
16412;DHT22;8315;52.104;6.304;2022-08-03T15:15:36;32.90;68.70
16412;DHT22;8315;52.104;6.304;2022-08-03T15:18:03;33.20;68.60
16412;DHT22;8315;52.104;6.304;2022-08-03T15:20:30;33.40;67.90
16412;DHT22;8315;52.104;6.304;2022-08-03T15:22:57;33.50;67.50
16412;DHT22;8315;52.104;6.304;2022-08-03T15:25:23;33.20;67.80
16412;DHT22;8315;52.104;6.304;2022-08-03T15:27:50;33.20;68.20
16412;DHT22;8315;52.104;6.304;2022-08-03T15:30:17;33.00;69.70
16412;DHT22;8315;52.104;6.304;2022-08-03T15:32:47;33.40;67.50
16412;DHT22;8315;52.104;6.304;2022-08-03T15:35:13;33.60;67.30
16412;DHT22;8315;52.104;6.304;2022-08-03T15:37:41;33.10;68.50
16412;DHT22;8315;52.104;6.304;2022-08-03T15:40:08;32.90;69.30
16412;DHT22;8315;52.104;6.304;2022-08-03T15:42:36;32.90;69.60
16412;DHT22;8315;52.104;6.304;2022-08-03T15:45:03;32.70;70.30
16412;DHT22;8315;52.104;6.304;2022-08-03T15:47:31;32.70;70.10
16412;DHT22;8315;52.104;6.304;2022-08-03T15:50:00;32.70;71.00
16412;DHT22;8315;52.104;6.304;2022-08-03T15:52:27;32.70;70.60
16412;DHT22;8315;52.104;6.304;2022-08-03T15:54:54;32.50;70.00
16412;DHT22;8315;52.104;6.304;2022-08-03T15:57:20;32.70;70.20
16412;DHT22;8315;52.104;6.304;2022-08-03T15:59:48;33.00;70.30
16412;DHT22;8315;52.104;6.304;2022-08-03T16:02:15;33.40;69.10
16412;DHT22;8315;52.104;6.304;2022-08-03T16:04:42;33.60;69.10
16412;DHT22;8315;52.104;6.304;2022-08-03T16:07:10;33.60;68.70
16412;DHT22;8315;52.104;6.304;2022-08-03T16:09:38;33.60;68.70
16412;DHT22;8315;52.104;6.304;2022-08-03T16:12:05;33.80;66.80
16412;DHT22;8315;52.104;6.304;2022-08-03T16:14:33;34.00;66.70